createdAt,value
2022-08-30T00:01:33.697Z,5.30
2022-08-30T00:04:02.990Z,5.78
2022-08-30T00:06:31.851Z,5.40
2022-08-30T00:08:59.966Z,5.78
2022-08-30T00:11:28.566Z,5.78
2022-08-30T00:13:57.991Z,5.28
2022-08-30T00:16:27.062Z,5.70
2022-08-30T00:18:56.175Z,5.75
2022-08-30T00:21:23.802Z,6.30
2022-08-30T00:23:51.169Z,5.35
2022-08-30T00:26:18.404Z,5.57
2022-08-30T00:28:45.600Z,5.80
2022-08-30T00:31:15.433Z,6.40
2022-08-30T00:33:46.453Z,7.15
2022-08-30T00:36:13.745Z,6.15
2022-08-30T00:38:40.843Z,7.03
2022-08-30T00:41:08.214Z,7.88
2022-08-30T00:43:37.028Z,6.85
2022-08-30T00:46:08.491Z,6.55
2022-08-30T00:48:45.659Z,6.40
2022-08-30T00:51:15.644Z,7.00
2022-08-30T00:53:51.511Z,6.65
2022-08-30T00:56:19.601Z,6.30
2022-08-30T00:58:53.854Z,7.05
2022-08-30T01:01:21.957Z,6.78
2022-08-30T01:03:49.284Z,7.07
2022-08-30T01:06:17.730Z,6.45
2022-08-30T01:08:46.815Z,7.05
2022-08-30T01:11:17.700Z,6.50
2022-08-30T01:16:27.337Z,6.38
2022-08-30T01:18:58.257Z,6.22
2022-08-30T01:21:39.646Z,6.72
2022-08-30T01:26:36.169Z,6.22
2022-08-30T01:29:11.775Z,7.45
2022-08-30T01:31:39.247Z,7.13
2022-08-30T01:34:08.089Z,7.35
2022-08-30T01:36:44.669Z,7.13
2022-08-30T01:39:15.852Z,6.38
2022-08-30T01:41:47.625Z,6.93
2022-08-30T01:44:16.701Z,6.43
2022-08-30T01:46:47.332Z,7.05
2022-08-30T01:49:17.818Z,6.65
2022-08-30T01:52:00.619Z,6.80
2022-08-30T01:54:33.364Z,6.78
2022-08-30T01:57:08.285Z,6.20
2022-08-30T01:59:36.175Z,6.78
2022-08-30T02:02:05.746Z,7.40
2022-08-30T02:04:34.285Z,7.10
2022-08-30T02:07:01.987Z,7.03
2022-08-30T02:09:29.566Z,6.75
2022-08-30T02:11:56.795Z,7.28
2022-08-30T02:14:24.068Z,6.90
2022-08-30T02:16:51.238Z,7.22
2022-08-30T02:19:18.742Z,7.07
2022-08-30T02:21:45.771Z,7.00
2022-08-30T02:24:13.042Z,6.15
2022-08-30T02:26:40.874Z,6.50
2022-08-30T02:29:10.129Z,7.15
2022-08-30T02:31:38.358Z,6.70
2022-08-30T02:34:05.615Z,6.63
2022-08-30T02:36:32.739Z,7.13
2022-08-30T02:39:00.782Z,6.63
2022-08-30T02:41:27.843Z,6.63
2022-08-30T02:43:58.572Z,6.40
2022-08-30T02:46:26.157Z,7.45
2022-08-30T02:48:53.528Z,7.22
2022-08-30T02:51:20.723Z,7.82
2022-08-30T02:53:49.311Z,7.95
2022-08-30T02:56:18.349Z,7.07
2022-08-30T02:58:46.683Z,8.52
2022-08-30T03:01:17.997Z,7.50
2022-08-30T03:03:55.373Z,7.78
2022-08-30T03:06:22.776Z,8.20
2022-08-30T03:08:50.350Z,7.07
2022-08-30T03:11:17.442Z,7.97
2022-08-30T03:13:44.649Z,7.85
2022-08-30T03:16:12.150Z,8.32
2022-08-30T03:18:39.878Z,8.00
2022-08-30T03:21:12.799Z,8.02
2022-08-30T03:23:40.919Z,8.98
2022-08-30T03:26:10.821Z,8.23
2022-08-30T03:28:42.894Z,8.95
2022-08-30T03:31:10.476Z,8.93
2022-08-30T03:33:40.563Z,8.15
2022-08-30T03:36:09.296Z,8.48
2022-08-30T03:38:36.444Z,8.85
2022-08-30T03:41:06.026Z,10.10
2022-08-30T03:43:35.374Z,9.13
2022-08-30T03:46:03.038Z,8.15
2022-08-30T03:48:32.434Z,8.95
2022-08-30T03:51:00.779Z,9.80
2022-08-30T03:53:28.404Z,8.93
2022-08-30T03:55:55.754Z,9.40
2022-08-30T03:58:24.830Z,8.95
2022-08-30T04:00:52.074Z,9.27
2022-08-30T04:03:21.029Z,10.18
2022-08-30T04:05:48.046Z,9.65
2022-08-30T04:08:15.668Z,11.07
2022-08-30T04:10:43.061Z,9.32
2022-08-30T04:13:12.071Z,11.23
2022-08-30T04:15:43.063Z,10.07
2022-08-30T04:18:10.579Z,10.02
2022-08-30T04:20:38.265Z,10.50
2022-08-30T04:23:07.276Z,10.80
2022-08-30T04:25:36.037Z,10.75
2022-08-30T04:28:04.388Z,11.20
2022-08-30T04:30:31.589Z,10.90
2022-08-30T04:32:59.101Z,10.38
2022-08-30T04:35:27.370Z,10.73
2022-08-30T04:37:55.827Z,11.13
2022-08-30T04:40:24.650Z,11.38
2022-08-30T04:42:57.251Z,12.07
2022-08-30T04:45:25.940Z,11.00
2022-08-30T04:47:53.232Z,11.07
2022-08-30T04:50:23.609Z,12.27
2022-08-30T04:52:51.208Z,10.80
2022-08-30T04:55:20.409Z,10.05
2022-08-30T04:57:48.368Z,11.73
2022-08-30T05:00:15.616Z,11.60
2022-08-30T05:02:44.102Z,11.57
2022-08-30T05:05:30.489Z,11.95
2022-08-30T05:07:58.104Z,11.30
2022-08-30T05:10:25.997Z,12.77
2022-08-30T05:12:53.739Z,12.95
2022-08-30T05:15:22.449Z,24.15
2022-08-30T05:17:49.719Z,12.02
2022-08-30T05:20:17.447Z,10.00
2022-08-30T05:22:54.281Z,9.73
2022-08-30T05:25:27.667Z,9.43
2022-08-30T05:27:55.485Z,9.80
2022-08-30T05:30:24.252Z,10.20
2022-08-30T05:32:52.132Z,10.82
2022-08-30T05:35:25.442Z,9.00
2022-08-30T05:37:54.290Z,9.73
2022-08-30T05:40:21.674Z,9.23
2022-08-30T05:42:48.738Z,8.00
2022-08-30T05:45:16.490Z,8.70
2022-08-30T05:47:43.806Z,8.93
2022-08-30T05:50:11.219Z,7.97
2022-08-30T05:52:40.529Z,7.75
2022-08-30T05:55:09.351Z,7.03
2022-08-30T05:57:38.800Z,7.55
2022-08-30T06:00:14.401Z,6.30
2022-08-30T06:02:42.412Z,6.45
2022-08-30T06:05:11.105Z,6.15
2022-08-30T06:07:42.557Z,6.30
2022-08-30T06:10:09.942Z,6.13
2022-08-30T06:12:37.640Z,6.72
2022-08-30T06:15:05.514Z,6.50
2022-08-30T06:17:32.872Z,6.63
2022-08-30T06:20:00.031Z,6.28
2022-08-30T06:22:27.583Z,6.10
2022-08-30T06:24:57.550Z,6.30
2022-08-30T06:27:25.380Z,6.57
2022-08-30T06:29:53.026Z,5.45
2022-08-30T06:32:20.303Z,6.88
2022-08-30T06:34:48.429Z,6.03
2022-08-30T06:37:29.190Z,6.07
2022-08-30T06:40:07.924Z,5.40
2022-08-30T06:42:35.124Z,5.55
2022-08-30T06:45:02.766Z,5.63
2022-08-30T06:47:38.351Z,5.30
2022-08-30T06:50:05.922Z,5.30
2022-08-30T06:52:33.083Z,5.70
2022-08-30T06:55:02.043Z,5.75
2022-08-30T06:57:30.497Z,6.22
2022-08-30T06:59:58.455Z,6.03
2022-08-30T07:02:26.671Z,5.43
2022-08-30T07:04:53.805Z,4.72
2022-08-30T07:07:20.918Z,5.43
2022-08-30T07:09:48.249Z,5.00
2022-08-30T07:12:16.023Z,4.32
2022-08-30T07:14:43.252Z,5.43
2022-08-30T07:17:33.879Z,4.72
2022-08-30T07:20:04.272Z,4.65
2022-08-30T07:22:33.677Z,5.00
2022-08-30T07:25:01.763Z,5.28
2022-08-30T07:27:31.713Z,5.50
2022-08-30T07:29:59.432Z,4.60
2022-08-30T07:32:28.103Z,5.00
2022-08-30T07:35:02.914Z,5.00
2022-08-30T07:37:32.739Z,4.82
2022-08-30T07:40:00.557Z,4.70
2022-08-30T07:42:27.759Z,4.97
2022-08-30T07:44:56.994Z,5.22
2022-08-30T07:47:24.172Z,4.80
2022-08-30T07:49:51.466Z,4.65
2022-08-30T07:52:18.522Z,5.25
2022-08-30T07:54:45.701Z,5.15
2022-08-30T07:57:12.853Z,5.05
2022-08-30T07:59:43.349Z,4.70
2022-08-30T08:02:10.610Z,4.85
2022-08-30T08:04:37.902Z,5.03
2022-08-30T08:07:05.407Z,5.10
2022-08-30T08:09:34.156Z,5.45
2022-08-30T08:12:01.310Z,5.03
2022-08-30T08:14:28.516Z,5.13
2022-08-30T08:16:55.714Z,5.22
2022-08-30T08:19:22.907Z,5.25
2022-08-30T08:21:59.348Z,5.30
2022-08-30T08:24:37.695Z,4.80
2022-08-30T08:27:04.795Z,4.90
2022-08-30T08:29:32.162Z,5.18
2022-08-30T08:32:00.360Z,4.93
2022-08-30T08:34:27.519Z,5.32
2022-08-30T08:36:55.276Z,5.35
2022-08-30T08:39:22.635Z,4.85
2022-08-30T08:42:05.282Z,5.18
2022-08-30T08:44:55.474Z,4.88
2022-08-30T08:47:32.039Z,4.60
2022-08-30T08:50:03.368Z,4.30
2022-08-30T08:53:05.391Z,4.88
2022-08-30T08:55:33.255Z,4.30
2022-08-30T08:58:01.400Z,4.63
2022-08-30T09:00:30.164Z,5.22
2022-08-30T09:03:03.284Z,5.57
2022-08-30T09:05:37.651Z,5.03
2022-08-30T09:08:11.800Z,5.25
2022-08-30T09:10:50.383Z,5.40
2022-08-30T09:13:21.056Z,5.13
2022-08-30T09:15:54.953Z,4.63
2022-08-30T09:18:48.978Z,4.85
2022-08-30T09:21:25.898Z,5.63
2022-08-30T09:24:04.741Z,4.97
2022-08-30T09:26:35.841Z,4.63
2022-08-30T09:31:46.432Z,4.80
2022-08-30T09:34:19.287Z,4.90
2022-08-30T09:36:52.190Z,4.30
2022-08-30T09:39:31.526Z,4.28
2022-08-30T09:42:21.190Z,4.47
2022-08-30T09:44:48.689Z,4.38
2022-08-30T09:47:31.592Z,4.40
2022-08-30T09:50:07.331Z,4.68
2022-08-30T09:52:55.102Z,4.28
2022-08-30T09:55:44.171Z,4.95
2022-08-30T09:58:19.379Z,4.10
2022-08-30T10:00:57.182Z,5.55
2022-08-30T10:03:43.945Z,4.03
2022-08-30T10:06:50.137Z,4.25
2022-08-30T10:09:33.431Z,4.53
2022-08-30T10:12:13.421Z,3.90
2022-08-30T10:14:49.615Z,3.83
2022-08-30T10:17:28.445Z,3.97
2022-08-30T10:20:26.318Z,3.95
2022-08-30T10:23:02.477Z,4.00
2022-08-30T10:26:10.255Z,4.18
2022-08-30T10:28:50.240Z,4.35
2022-08-30T10:31:42.200Z,3.97
2022-08-30T10:34:17.118Z,3.63
2022-08-30T10:36:53.081Z,4.32
2022-08-30T10:39:31.423Z,3.30
2022-08-30T10:42:17.814Z,4.07
2022-08-30T10:44:51.071Z,3.47
2022-08-30T10:47:30.325Z,3.53
2022-08-30T10:50:15.213Z,3.75
2022-08-30T10:52:50.517Z,3.40
2022-08-30T10:55:49.875Z,2.92
2022-08-30T10:58:18.658Z,3.00
2022-08-30T11:01:12.406Z,3.33
2022-08-30T11:04:29.824Z,3.53
2022-08-30T11:07:34.881Z,4.53
2022-08-30T11:10:15.032Z,2.92
2022-08-30T11:13:05.472Z,3.70
2022-08-30T11:15:38.059Z,2.83
2022-08-30T11:18:13.646Z,2.95
2022-08-30T11:20:46.816Z,3.17
2022-08-30T11:23:26.163Z,3.25
2022-08-30T11:25:59.671Z,3.95
2022-08-30T11:28:50.784Z,3.38
2022-08-30T11:31:21.228Z,3.10
2022-08-30T11:33:57.912Z,3.40
2022-08-30T11:36:28.973Z,5.22
2022-08-30T11:39:10.615Z,3.70
2022-08-30T11:41:47.640Z,6.65
2022-08-30T11:44:15.286Z,3.92
2022-08-30T11:46:43.371Z,3.75
2022-08-30T11:49:15.692Z,3.95
2022-08-30T11:52:08.216Z,3.05
2022-08-30T11:55:00.575Z,3.70
2022-08-30T11:57:45.887Z,3.60
2022-08-30T12:00:40.851Z,3.42
2022-08-30T12:03:33.606Z,3.63
2022-08-30T12:06:05.595Z,3.05
2022-08-30T12:08:36.178Z,3.85
2022-08-30T12:11:09.260Z,3.63
2022-08-30T12:13:37.702Z,2.83
2022-08-30T12:16:09.387Z,3.35
2022-08-30T12:18:55.565Z,4.20
2022-08-30T12:21:33.434Z,3.20
2022-08-30T12:24:11.908Z,3.65
2022-08-30T12:26:45.013Z,3.58
2022-08-30T12:29:18.160Z,2.90
2022-08-30T12:31:51.393Z,3.00
2022-08-30T12:34:36.153Z,2.72
2022-08-30T12:37:19.339Z,3.22
2022-08-30T12:39:53.855Z,3.78
2022-08-30T12:42:22.821Z,3.13
2022-08-30T12:44:52.660Z,3.20
2022-08-30T12:47:27.046Z,3.10
2022-08-30T12:49:55.904Z,3.00
2022-08-30T12:52:36.124Z,3.22
2022-08-30T12:55:21.566Z,2.92
2022-08-30T12:58:01.969Z,3.65
2022-08-30T13:00:34.072Z,3.28
2022-08-30T13:03:30.763Z,2.70
2022-08-30T13:05:58.641Z,2.83
2022-08-30T13:08:37.091Z,2.83
2022-08-30T13:11:11.524Z,3.75
2022-08-30T13:13:52.149Z,3.03
2022-08-30T13:16:23.334Z,3.00
2022-08-30T13:19:14.598Z,3.33
2022-08-30T13:21:57.140Z,3.53
2022-08-30T13:24:25.802Z,3.13
2022-08-30T13:26:55.843Z,3.42
2022-08-30T13:29:27.074Z,3.00
2022-08-30T13:31:55.284Z,3.65
2022-08-30T13:34:24.276Z,3.25
2022-08-30T13:36:58.394Z,3.42
2022-08-30T13:39:26.725Z,3.47
2022-08-30T13:41:56.377Z,3.08
2022-08-30T13:44:43.004Z,3.17
2022-08-30T13:50:00.018Z,2.97
2022-08-30T13:52:28.214Z,3.53
2022-08-30T13:54:57.117Z,2.88
2022-08-30T14:00:19.959Z,3.20
2022-08-30T14:02:54.955Z,3.08
2022-08-30T14:05:50.116Z,2.72
2022-08-30T14:11:15.894Z,3.20
2022-08-30T14:16:31.600Z,3.42
2022-08-30T14:19:00.464Z,2.92
2022-08-30T14:21:28.636Z,3.03
2022-08-30T14:23:57.840Z,2.97
2022-08-30T14:26:51.980Z,3.08
2022-08-30T14:29:22.657Z,2.90
2022-08-30T14:31:52.034Z,3.75
2022-08-30T14:34:20.035Z,3.13
2022-08-30T14:36:47.692Z,3.65
2022-08-30T14:39:19.011Z,3.17
2022-08-30T14:41:50.308Z,3.70
2022-08-30T14:44:18.727Z,2.83
2022-08-30T14:46:46.660Z,2.80
2022-08-30T14:49:15.763Z,3.35
2022-08-30T14:51:46.474Z,3.15
2022-08-30T14:54:13.899Z,2.80
2022-08-30T14:56:41.975Z,3.53
2022-08-30T14:59:10.421Z,2.95
2022-08-30T15:01:41.947Z,3.03
2022-08-30T15:04:10.701Z,3.47
2022-08-30T15:06:39.413Z,3.30
2022-08-30T15:09:09.924Z,3.53
2022-08-30T15:11:38.222Z,3.40
2022-08-30T15:14:06.764Z,3.13
2022-08-30T15:16:36.612Z,3.30
2022-08-30T15:19:06.309Z,3.60
2022-08-30T15:21:42.173Z,3.10
2022-08-30T15:24:13.086Z,3.80
2022-08-30T15:29:13.910Z,2.80
2022-08-30T15:31:42.228Z,3.53
2022-08-30T15:34:13.089Z,2.90
2022-08-30T15:36:42.389Z,3.20
2022-08-30T15:39:11.346Z,2.97
2022-08-30T15:41:39.932Z,3.85
2022-08-30T15:44:12.310Z,3.35
2022-08-30T15:46:43.894Z,3.55
2022-08-30T15:49:16.542Z,3.60
2022-08-30T15:51:45.874Z,3.95
2022-08-30T15:54:17.293Z,3.25
2022-08-30T15:56:45.437Z,3.22
2022-08-30T15:59:15.538Z,3.58
2022-08-30T16:01:44.301Z,4.00
2022-08-30T16:04:12.256Z,3.65
2022-08-30T16:06:39.693Z,3.70
2022-08-30T16:09:10.463Z,4.40
2022-08-30T16:11:38.220Z,5.28
2022-08-30T16:14:06.852Z,7.85
2022-08-30T16:16:37.901Z,8.02
2022-08-30T16:19:07.457Z,8.75
2022-08-30T16:21:40.110Z,11.15
2022-08-30T16:24:10.718Z,18.83
2022-08-30T16:26:43.189Z,10.35
2022-08-30T16:29:12.529Z,9.00
2022-08-30T16:31:40.933Z,10.55
2022-08-30T16:34:08.106Z,7.68
2022-08-30T16:36:36.101Z,8.05
2022-08-30T16:39:08.586Z,7.63
2022-08-30T16:41:37.308Z,7.00
2022-08-30T16:44:06.377Z,5.90
2022-08-30T16:46:34.863Z,5.53
2022-08-30T16:49:02.537Z,6.05
2022-08-30T16:51:32.756Z,5.25
2022-08-30T16:54:04.570Z,5.70
2022-08-30T16:56:33.252Z,6.18
2022-08-30T16:59:03.011Z,6.40
2022-08-30T17:01:35.001Z,6.53
2022-08-30T17:04:03.283Z,6.00
2022-08-30T17:06:31.158Z,5.35
2022-08-30T17:08:59.416Z,5.45
2022-08-30T17:11:26.918Z,4.95
2022-08-30T17:13:54.562Z,5.20
2022-08-30T17:16:28.033Z,5.00
2022-08-30T17:19:01.140Z,5.38
2022-08-30T17:21:29.511Z,4.50
2022-08-30T17:24:02.296Z,5.95
2022-08-30T17:26:32.462Z,5.60
2022-08-30T17:29:00.181Z,5.43
2022-08-30T17:31:30.602Z,4.78
2022-08-30T17:34:04.041Z,4.15
2022-08-30T17:36:35.430Z,4.88
2022-08-30T17:39:10.588Z,4.80
2022-08-30T17:41:45.231Z,4.38
2022-08-30T17:44:20.105Z,4.85
2022-08-30T17:46:47.567Z,4.88
2022-08-30T17:49:15.169Z,4.60
2022-08-30T17:51:49.457Z,4.95
2022-08-30T17:54:21.041Z,5.22
2022-08-30T17:56:52.086Z,6.10
2022-08-30T17:59:20.299Z,5.00
2022-08-30T18:01:54.664Z,5.53
2022-08-30T18:04:24.849Z,5.30
2022-08-30T18:06:53.040Z,5.22
2022-08-30T18:09:21.064Z,5.07
2022-08-30T18:11:57.717Z,6.32
2022-08-30T18:14:25.707Z,5.22
2022-08-30T18:16:54.542Z,6.28
2022-08-30T18:19:25.939Z,6.43
2022-08-30T18:21:55.367Z,5.90
2022-08-30T18:24:23.382Z,6.50
2022-08-30T18:26:50.800Z,6.20
2022-08-30T18:29:25.972Z,5.88
2022-08-30T18:32:01.813Z,5.90
2022-08-30T18:34:30.515Z,5.50
2022-08-30T18:36:57.949Z,5.57
2022-08-30T18:39:25.473Z,6.28
2022-08-30T18:41:54.836Z,7.60
2022-08-30T18:44:28.351Z,6.18
2022-08-30T18:46:57.989Z,6.03
2022-08-30T18:49:29.463Z,6.93
2022-08-30T18:52:01.131Z,6.70
2022-08-30T18:54:29.056Z,6.10
2022-08-30T18:56:56.103Z,6.38
2022-08-30T18:59:23.329Z,6.65
2022-08-30T19:02:05.199Z,6.37
2022-08-30T19:04:35.754Z,6.03
2022-08-30T19:07:07.735Z,5.75
2022-08-30T19:09:35.658Z,7.78
2022-08-30T19:12:09.362Z,6.65
2022-08-30T19:14:37.503Z,6.40
2022-08-30T19:17:07.255Z,5.85
2022-08-30T19:19:37.401Z,5.70
2022-08-30T19:22:15.950Z,6.32
2022-08-30T19:24:43.476Z,6.20
2022-08-30T19:27:11.104Z,6.47
2022-08-30T19:29:40.050Z,6.82
2022-08-30T19:32:08.491Z,5.90
2022-08-30T19:34:37.607Z,6.53
2022-08-30T19:37:14.648Z,6.28
2022-08-30T19:42:14.118Z,7.00
2022-08-30T19:44:43.718Z,7.25
2022-08-30T19:47:18.873Z,6.07
2022-08-30T19:49:46.370Z,6.22
2022-08-30T19:52:13.468Z,6.82
2022-08-30T19:54:41.255Z,6.07
2022-08-30T19:57:09.975Z,5.88
2022-08-30T19:59:38.318Z,6.55
2022-08-30T20:02:06.681Z,6.15
2022-08-30T20:04:40.906Z,5.97
2022-08-30T20:07:10.445Z,6.90
2022-08-30T20:09:37.764Z,6.40
2022-08-30T20:12:05.239Z,7.13
2022-08-30T20:14:32.917Z,7.13
2022-08-30T20:19:47.890Z,6.65
2022-08-30T20:22:15.337Z,7.30
2022-08-30T20:24:43.896Z,6.78
2022-08-30T20:27:11.611Z,7.20
2022-08-30T20:29:40.435Z,6.65
2022-08-30T20:32:07.613Z,6.20
2022-08-30T20:34:34.998Z,6.20
2022-08-30T20:37:08.192Z,6.22
2022-08-30T20:39:36.156Z,6.50
2022-08-30T20:42:05.002Z,5.55
2022-08-30T20:44:32.234Z,6.03
2022-08-30T20:46:59.590Z,5.57
2022-08-30T20:49:27.829Z,5.78
2022-08-30T20:51:55.612Z,6.43
2022-08-30T20:54:23.796Z,6.47
2022-08-30T20:56:51.603Z,6.28
2022-08-30T20:59:18.783Z,6.32
2022-08-30T21:01:48.471Z,6.00
2022-08-30T21:04:17.156Z,6.65
2022-08-30T21:06:44.298Z,6.78
2022-08-30T21:09:11.788Z,6.60
2022-08-30T21:11:38.941Z,6.30
2022-08-30T21:14:12.289Z,6.47
2022-08-30T21:16:39.542Z,6.53
2022-08-30T21:19:06.997Z,6.78
2022-08-30T21:21:34.233Z,6.78
2022-08-30T21:24:06.779Z,7.05
2022-08-30T21:26:34.078Z,6.75
2022-08-30T21:29:01.295Z,6.68
2022-08-30T21:31:29.369Z,6.03
2022-08-30T21:33:56.966Z,7.70
2022-08-30T21:36:45.298Z,7.03
2022-08-30T21:39:28.033Z,6.38
2022-08-30T21:41:57.130Z,6.40
2022-08-30T21:44:26.789Z,7.15
2022-08-30T21:46:55.042Z,7.32
2022-08-30T21:49:23.691Z,7.53
2022-08-30T21:51:53.698Z,7.20
2022-08-30T21:54:22.147Z,6.82
2022-08-30T21:56:51.186Z,7.00
2022-08-30T21:59:19.634Z,6.63
2022-08-30T22:01:48.345Z,6.88
2022-08-30T22:04:16.213Z,7.53
2022-08-30T22:06:50.216Z,7.10
2022-08-30T22:09:21.578Z,7.68
2022-08-30T22:11:50.023Z,6.78
2022-08-30T22:14:18.218Z,6.78
2022-08-30T22:16:46.306Z,7.00
2022-08-30T22:19:13.857Z,6.93
2022-08-30T22:21:42.784Z,6.78
2022-08-30T22:24:10.801Z,7.45
2022-08-30T22:26:38.197Z,7.53
2022-08-30T22:29:06.810Z,7.30
2022-08-30T22:31:34.446Z,7.28
2022-08-30T22:34:01.680Z,7.60
2022-08-30T22:36:32.829Z,7.28
2022-08-30T22:39:01.700Z,7.30
2022-08-30T22:41:31.144Z,6.75
2022-08-30T22:43:59.162Z,7.63
2022-08-30T22:46:33.850Z,7.90
2022-08-30T22:49:06.627Z,7.43
2022-08-30T22:51:35.027Z,8.27
2022-08-30T22:54:03.681Z,7.35
2022-08-30T22:56:33.021Z,7.40
2022-08-30T22:59:00.304Z,7.43
2022-08-30T23:01:30.390Z,8.00
2022-08-30T23:03:58.891Z,8.02
2022-08-30T23:06:26.163Z,7.90
2022-08-30T23:08:53.797Z,7.40
2022-08-30T23:11:21.306Z,7.32
2022-08-30T23:13:48.611Z,6.90
2022-08-30T23:16:17.571Z,7.68
2022-08-30T23:18:45.631Z,6.82
2022-08-30T23:21:21.312Z,8.13
2022-08-30T23:24:08.497Z,7.32
2022-08-30T23:26:54.714Z,7.30
2022-08-30T23:29:40.353Z,7.90
2022-08-30T23:32:26.569Z,7.88
2022-08-30T23:35:12.420Z,8.00
2022-08-30T23:37:59.209Z,7.60
2022-08-30T23:40:47.301Z,7.63
2022-08-30T23:43:33.255Z,6.78
2022-08-30T23:46:19.737Z,8.52
2022-08-30T23:49:06.402Z,7.50
2022-08-30T23:51:53.774Z,8.18
2022-08-30T23:54:39.446Z,8.23
2022-08-30T23:57:25.839Z,8.55
